AMX161 MMMY-MMGL
Flight info
| Callsign | AMX161 |
|---|---|
| Flight time | 1h 13m |
| Altitude | 3400 |
| Route | KERG1A/12 KERGA UT44 MEZCA MEZCA1B |
| Aircraft | B738/M-SDE2E3FGHIRWXY/LB1 |
Departure
| Time | 2026-04-22 02:44 |
|---|---|
| Airport | Monterrey International Airport (MMMY) |
Arrival
| Time | 2026-04-22 03:58 |
|---|---|
| Airport | Guadalajara International Airport (MMGL) |
| Time | Latitude | Longitude | Altitude | Speed | Heading |
|---|---|---|---|---|---|
| 2026-04-22 01:57 | 25.77652 | -100.11156 | 1277 ft | 0 kts | 213° |
| 2026-04-22 02:32 | 25.77660 | -100.11150 | 1277 ft | 2 kts | 219° |
| 2026-04-22 02:32 | 25.77670 | -100.11138 | 1277 ft | 2 kts | 237° |
| 2026-04-22 02:32 | 25.77677 | -100.11123 | 1277 ft | 2 kts | 253° |
| 2026-04-22 02:32 | 25.77680 | -100.11107 | 1276 ft | 2 kts | 268° |
| 2026-04-22 02:33 | 25.77678 | -100.11090 | 1276 ft | 2 kts | 284° |
| 2026-04-22 02:33 | 25.77673 | -100.11075 | 1276 ft | 1 kts | 299° |
| 2026-04-22 02:33 | 25.77670 | -100.11069 | 1276 ft | 1 kts | 304° |
| 2026-04-22 02:33 | 25.77669 | -100.11067 | 1276 ft | 0 kts | 303° |
| 2026-04-22 02:34 | 25.77653 | -100.11077 | 1276 ft | 0 kts | 303° |
| 2026-04-22 02:38 | 25.77653 | -100.11078 | 1276 ft | 0 kts | 303° |
| 2026-04-22 02:38 | 25.77659 | -100.11087 | 1276 ft | 7 kts | 303° |
| 2026-04-22 02:38 | 25.77729 | -100.11189 | 1278 ft | 16 kts | 334° |
| 2026-04-22 02:39 | 25.77817 | -100.11153 | 1277 ft | 13 kts | 35° |
| 2026-04-22 02:39 | 25.77889 | -100.11162 | 1278 ft | 10 kts | 306° |
| 2026-04-22 02:39 | 25.77930 | -100.11240 | 1280 ft | 15 kts | 301° |
| 2026-04-22 02:39 | 25.77987 | -100.11341 | 1282 ft | 14 kts | 301° |
| 2026-04-22 02:40 | 25.78036 | -100.11431 | 1284 ft | 12 kts | 301° |
| 2026-04-22 02:40 | 25.78079 | -100.11510 | 1285 ft | 13 kts | 301° |
| 2026-04-22 02:40 | 25.78127 | -100.11596 | 1288 ft | 11 kts | 301° |
| 2026-04-22 02:40 | 25.78170 | -100.11678 | 1289 ft | 13 kts | 300° |
| 2026-04-22 02:41 | 25.78219 | -100.11767 | 1291 ft | 13 kts | 308° |
| 2026-04-22 02:41 | 25.78286 | -100.11793 | 1291 ft | 0 kts | 18° |
| 2026-04-22 02:41 | 25.78287 | -100.11793 | 1291 ft | 0 kts | 18° |
| 2026-04-22 02:42 | 25.78289 | -100.11792 | 1291 ft | 1 kts | 19° |
| 2026-04-22 02:42 | 25.78304 | -100.11785 | 1291 ft | 3 kts | 26° |
| 2026-04-22 02:42 | 25.78346 | -100.11758 | 1290 ft | 11 kts | 33° |
| 2026-04-22 02:43 | 25.78394 | -100.11681 | 1289 ft | 0 kts | 107° |
| 2026-04-22 02:43 | 25.78387 | -100.11670 | 1289 ft | 2 kts | 124° |
| 2026-04-22 02:43 | 25.78376 | -100.11652 | 1288 ft | 0 kts | 126° |
| 2026-04-22 02:43 | 25.78334 | -100.11584 | 1287 ft | 47 kts | 120° |
| 2026-04-22 02:44 | 25.77999 | -100.10973 | 1275 ft | 137 kts | 121° |
| 2026-04-22 02:44 | 25.77404 | -100.09892 | 1738 ft | 173 kts | 123° |
| 2026-04-22 02:44 | 25.76834 | -100.08848 | 3044 ft | 160 kts | 116° |
| 2026-04-22 02:44 | 25.76298 | -100.07723 | 3717 ft | 178 kts | 118° |
| 2026-04-22 02:45 | 25.75635 | -100.06522 | 4482 ft | 191 kts | 122° |
| 2026-04-22 02:45 | 25.74911 | -100.05257 | 5243 ft | 205 kts | 122° |
| 2026-04-22 02:45 | 25.74066 | -100.03901 | 5971 ft | 221 kts | 135° |
| 2026-04-22 02:45 | 25.72676 | -100.03114 | 6667 ft | 240 kts | 169° |
| 2026-04-22 02:46 | 25.70955 | -100.03072 | 7339 ft | 260 kts | 183° |
| 2026-04-22 02:46 | 25.69074 | -100.03184 | 8092 ft | 278 kts | 183° |
| 2026-04-22 02:46 | 25.67092 | -100.03205 | 8880 ft | 292 kts | 181° |
| 2026-04-22 02:46 | 25.65034 | -100.03153 | 9738 ft | 303 kts | 181° |
| 2026-04-22 02:47 | 25.62948 | -100.03072 | 10752 ft | 305 kts | 181° |
| 2026-04-22 02:47 | 25.60765 | -100.02988 | 11427 ft | 320 kts | 182° |
| 2026-04-22 02:47 | 25.58492 | -100.02908 | 12106 ft | 336 kts | 182° |
| 2026-04-22 02:47 | 25.56142 | -100.02824 | 12888 ft | 345 kts | 182° |
| 2026-04-22 02:48 | 25.53753 | -100.02734 | 13847 ft | 347 kts | 182° |
| 2026-04-22 02:48 | 25.51303 | -100.02637 | 14733 ft | 354 kts | 182° |
| 2026-04-22 02:48 | 25.48807 | -100.02540 | 15510 ft | 363 kts | 183° |
| 2026-04-22 02:48 | 25.46278 | -100.02447 | 16364 ft | 369 kts | 183° |
| 2026-04-22 02:49 | 25.43708 | -100.02353 | 17185 ft | 376 kts | 183° |
| 2026-04-22 02:49 | 25.41063 | -100.02258 | 18052 ft | 380 kts | 183° |
| 2026-04-22 02:49 | 25.38417 | -100.02160 | 18892 ft | 384 kts | 183° |
| 2026-04-22 02:49 | 25.35731 | -100.02061 | 19695 ft | 389 kts | 184° |
| 2026-04-22 02:50 | 25.32998 | -100.01964 | 20061 ft | 397 kts | 184° |
| 2026-04-22 02:50 | 25.30265 | -100.01865 | 20132 ft | 394 kts | 183° |
| 2026-04-22 02:50 | 25.27497 | -100.01760 | 20153 ft | 391 kts | 183° |
| 2026-04-22 02:50 | 25.24787 | -100.01660 | 20165 ft | 392 kts | 184° |
| 2026-04-22 02:51 | 25.22012 | -100.01561 | 20656 ft | 403 kts | 184° |
| 2026-04-22 02:51 | 25.19256 | -100.01457 | 21744 ft | 397 kts | 184° |
| 2026-04-22 02:51 | 25.16469 | -100.01356 | 22427 ft | 403 kts | 184° |
| 2026-04-22 02:51 | 25.13656 | -100.01255 | 23173 ft | 406 kts | 184° |
| 2026-04-22 02:52 | 25.10824 | -100.01152 | 23829 ft | 411 kts | 184° |
| 2026-04-22 02:52 | 25.07965 | -100.01044 | 24626 ft | 412 kts | 184° |
| 2026-04-22 02:52 | 25.05075 | -100.00936 | 25267 ft | 416 kts | 184° |
| 2026-04-22 02:52 | 25.02187 | -100.00831 | 25924 ft | 420 kts | 185° |
| 2026-04-22 02:53 | 24.99211 | -100.00742 | 26518 ft | 424 kts | 185° |
| 2026-04-22 02:53 | 24.96282 | -100.00795 | 27213 ft | 421 kts | 191° |
| 2026-04-22 02:53 | 24.93410 | -100.01293 | 27676 ft | 420 kts | 200° |
| 2026-04-22 02:53 | 24.90671 | -100.02367 | 28304 ft | 414 kts | 211° |
| 2026-04-22 02:54 | 24.88144 | -100.03863 | 29059 ft | 408 kts | 217° |
| 2026-04-22 02:54 | 24.85759 | -100.05527 | 29921 ft | 402 kts | 219° |
| 2026-04-22 02:54 | 24.83440 | -100.07214 | 30754 ft | 396 kts | 219° |
| 2026-04-22 02:54 | 24.81163 | -100.08862 | 31479 ft | 394 kts | 219° |
| 2026-04-22 02:55 | 24.78884 | -100.10476 | 32235 ft | 390 kts | 219° |
| 2026-04-22 02:55 | 24.76579 | -100.12071 | 32951 ft | 387 kts | 218° |
| 2026-04-22 02:55 | 24.74307 | -100.13608 | 33692 ft | 383 kts | 218° |
| 2026-04-22 02:55 | 24.72013 | -100.15140 | 34246 ft | 382 kts | 218° |
| 2026-04-22 02:56 | 24.69699 | -100.16675 | 34325 ft | 389 kts | 217° |
| 2026-04-22 02:56 | 24.65059 | -100.19716 | 34342 ft | 385 kts | 217° |
| 2026-04-22 02:57 | 24.60476 | -100.22688 | 34343 ft | 379 kts | 217° |
| 2026-04-22 02:57 | 24.55904 | -100.25667 | 34344 ft | 383 kts | 217° |
| 2026-04-22 02:58 | 24.51276 | -100.28684 | 34343 ft | 383 kts | 217° |
| 2026-04-22 02:58 | 24.46714 | -100.31632 | 34345 ft | 382 kts | 217° |
| 2026-04-22 02:59 | 24.42113 | -100.34605 | 34348 ft | 383 kts | 217° |
| 2026-04-22 02:59 | 24.37504 | -100.37585 | 34344 ft | 382 kts | 217° |
| 2026-04-22 03:00 | 24.32896 | -100.40573 | 34350 ft | 384 kts | 217° |
| 2026-04-22 03:00 | 24.28285 | -100.43555 | 34346 ft | 383 kts | 217° |
| 2026-04-22 03:01 | 24.23665 | -100.46536 | 34350 ft | 383 kts | 217° |
| 2026-04-22 03:01 | 24.19058 | -100.49510 | 34354 ft | 390 kts | 217° |
| 2026-04-22 03:01 | 24.16687 | -100.51045 | 34351 ft | 401 kts | 217° |
| 2026-04-22 03:02 | 24.14227 | -100.52639 | 34348 ft | 412 kts | 217° |
| 2026-04-22 03:02 | 24.11733 | -100.54253 | 34346 ft | 423 kts | 217° |
| 2026-04-22 03:02 | 24.09151 | -100.55923 | 34352 ft | 433 kts | 217° |
| 2026-04-22 03:03 | 24.03893 | -100.59312 | 34359 ft | 435 kts | 216° |
| 2026-04-22 03:03 | 23.98714 | -100.62624 | 34365 ft | 432 kts | 217° |
| 2026-04-22 03:04 | 23.93485 | -100.65973 | 34364 ft | 434 kts | 216° |
| 2026-04-22 03:04 | 23.88276 | -100.69312 | 34367 ft | 433 kts | 216° |
| 2026-04-22 03:05 | 23.83047 | -100.72658 | 34364 ft | 434 kts | 216° |
| 2026-04-22 03:05 | 23.77799 | -100.76021 | 34363 ft | 432 kts | 216° |
| 2026-04-22 03:06 | 23.72609 | -100.79349 | 34365 ft | 431 kts | 216° |
| 2026-04-22 03:06 | 23.67407 | -100.82677 | 34363 ft | 435 kts | 216° |
| 2026-04-22 03:07 | 23.62163 | -100.86025 | 34366 ft | 434 kts | 216° |
| 2026-04-22 03:07 | 23.56906 | -100.89374 | 34361 ft | 434 kts | 215° |
| 2026-04-22 03:08 | 23.51704 | -100.92688 | 34358 ft | 435 kts | 216° |
| 2026-04-22 03:08 | 23.46669 | -100.96357 | 34365 ft | 431 kts | 220° |
| 2026-04-22 03:09 | 23.41832 | -101.00256 | 34371 ft | 432 kts | 221° |
| 2026-04-22 03:09 | 23.37010 | -101.04169 | 34383 ft | 432 kts | 221° |
| 2026-04-22 03:10 | 23.32172 | -101.08060 | 34394 ft | 431 kts | 220° |
| 2026-04-22 03:10 | 23.27329 | -101.11917 | 34402 ft | 433 kts | 220° |
| 2026-04-22 03:11 | 23.22471 | -101.15773 | 34412 ft | 431 kts | 220° |
| 2026-04-22 03:11 | 23.17626 | -101.19610 | 34420 ft | 431 kts | 220° |
| 2026-04-22 03:12 | 23.12743 | -101.23466 | 34426 ft | 431 kts | 220° |
| 2026-04-22 03:12 | 23.05454 | -101.29212 | 34437 ft | 431 kts | 220° |
| 2026-04-22 03:13 | 23.00590 | -101.33048 | 34433 ft | 429 kts | 220° |
| 2026-04-22 03:13 | 22.95721 | -101.36881 | 34426 ft | 431 kts | 220° |
| 2026-04-22 03:14 | 22.90840 | -101.40713 | 34415 ft | 432 kts | 220° |
| 2026-04-22 03:14 | 22.85943 | -101.44559 | 34415 ft | 430 kts | 220° |
| 2026-04-22 03:15 | 22.81100 | -101.48362 | 34414 ft | 432 kts | 220° |
| 2026-04-22 03:15 | 22.76217 | -101.52192 | 34419 ft | 431 kts | 220° |
| 2026-04-22 03:16 | 22.71345 | -101.56015 | 34423 ft | 431 kts | 220° |
| 2026-04-22 03:16 | 22.66458 | -101.59839 | 34432 ft | 431 kts | 220° |
| 2026-04-22 03:17 | 22.61634 | -101.63607 | 34438 ft | 430 kts | 220° |
| 2026-04-22 03:17 | 22.56723 | -101.67446 | 34440 ft | 430 kts | 220° |
| 2026-04-22 03:18 | 22.51833 | -101.71267 | 34444 ft | 430 kts | 220° |
| 2026-04-22 03:18 | 22.46969 | -101.75053 | 34448 ft | 430 kts | 220° |
| 2026-04-22 03:19 | 22.42100 | -101.78845 | 34454 ft | 431 kts | 220° |
| 2026-04-22 03:19 | 22.37213 | -101.82656 | 34453 ft | 432 kts | 220° |
| 2026-04-22 03:20 | 22.32338 | -101.86448 | 34449 ft | 431 kts | 220° |
| 2026-04-22 03:20 | 22.27430 | -101.90263 | 34442 ft | 431 kts | 220° |
| 2026-04-22 03:21 | 22.22588 | -101.94022 | 34440 ft | 432 kts | 219° |
| 2026-04-22 03:21 | 22.17690 | -101.97824 | 34436 ft | 431 kts | 220° |
| 2026-04-22 03:22 | 22.12832 | -102.01592 | 34429 ft | 433 kts | 220° |
| 2026-04-22 03:22 | 22.07918 | -102.05394 | 34428 ft | 431 kts | 220° |
| 2026-04-22 03:23 | 22.03013 | -102.09189 | 34424 ft | 433 kts | 219° |
| 2026-04-22 03:23 | 21.98126 | -102.12968 | 34418 ft | 434 kts | 219° |
| 2026-04-22 03:24 | 21.93202 | -102.16702 | 34412 ft | 434 kts | 218° |
| 2026-04-22 03:24 | 21.88100 | -102.20261 | 34404 ft | 430 kts | 216° |
| 2026-04-22 03:25 | 21.85615 | -102.21954 | 34349 ft | 416 kts | 217° |
| 2026-04-22 03:25 | 21.83202 | -102.23597 | 34144 ft | 404 kts | 217° |
| 2026-04-22 03:25 | 21.80858 | -102.25202 | 33908 ft | 393 kts | 217° |
| 2026-04-22 03:25 | 21.78585 | -102.26764 | 33601 ft | 385 kts | 217° |
| 2026-04-22 03:26 | 21.76338 | -102.28316 | 32915 ft | 386 kts | 218° |
| 2026-04-22 03:26 | 21.74060 | -102.29902 | 32031 ft | 392 kts | 218° |
| 2026-04-22 03:26 | 21.71775 | -102.31502 | 31128 ft | 399 kts | 218° |
| 2026-04-22 03:26 | 21.69485 | -102.33202 | 30281 ft | 401 kts | 221° |
| 2026-04-22 03:27 | 21.67241 | -102.35034 | 29428 ft | 403 kts | 223° |
| 2026-04-22 03:27 | 21.65048 | -102.36907 | 28533 ft | 407 kts | 224° |
| 2026-04-22 03:27 | 21.62843 | -102.38814 | 27684 ft | 410 kts | 223° |
| 2026-04-22 03:27 | 21.60620 | -102.40736 | 26843 ft | 412 kts | 223° |
| 2026-04-22 03:28 | 21.58385 | -102.42657 | 26006 ft | 414 kts | 223° |
| 2026-04-22 03:28 | 21.56135 | -102.44579 | 25050 ft | 418 kts | 222° |
| 2026-04-22 03:28 | 21.53863 | -102.46507 | 24542 ft | 410 kts | 222° |
| 2026-04-22 03:28 | 21.51640 | -102.48384 | 24391 ft | 401 kts | 222° |
| 2026-04-22 03:29 | 21.49445 | -102.50236 | 24379 ft | 408 kts | 222° |
| 2026-04-22 03:29 | 21.47180 | -102.52148 | 24377 ft | 415 kts | 222° |
| 2026-04-22 03:29 | 21.44934 | -102.54041 | 24386 ft | 414 kts | 221° |
| 2026-04-22 03:29 | 21.42657 | -102.55953 | 24393 ft | 412 kts | 221° |
| 2026-04-22 03:30 | 21.40393 | -102.57858 | 24395 ft | 413 kts | 221° |
| 2026-04-22 03:30 | 21.38118 | -102.59767 | 24393 ft | 414 kts | 221° |
| 2026-04-22 03:30 | 21.35845 | -102.61679 | 24393 ft | 413 kts | 222° |
| 2026-04-22 03:30 | 21.33600 | -102.63567 | 24392 ft | 413 kts | 221° |
| 2026-04-22 03:31 | 21.31337 | -102.65469 | 24388 ft | 412 kts | 221° |
| 2026-04-22 03:31 | 21.29094 | -102.67351 | 24384 ft | 396 kts | 221° |
| 2026-04-22 03:31 | 21.26990 | -102.69106 | 24385 ft | 378 kts | 221° |
| 2026-04-22 03:31 | 21.24956 | -102.70798 | 24384 ft | 362 kts | 221° |
| 2026-04-22 03:32 | 21.22981 | -102.72440 | 24388 ft | 351 kts | 221° |
| 2026-04-22 03:32 | 21.21051 | -102.74050 | 24394 ft | 353 kts | 222° |
| 2026-04-22 03:32 | 21.19114 | -102.75674 | 24391 ft | 357 kts | 222° |
| 2026-04-22 03:32 | 21.17148 | -102.77323 | 24390 ft | 358 kts | 221° |
| 2026-04-22 03:33 | 21.15149 | -102.78886 | 24385 ft | 360 kts | 217° |
| 2026-04-22 03:33 | 21.12909 | -102.80130 | 24388 ft | 365 kts | 205° |
| 2026-04-22 03:33 | 21.10438 | -102.80838 | 24391 ft | 370 kts | 193° |
| 2026-04-22 03:33 | 21.07868 | -102.81042 | 24388 ft | 373 kts | 184° |
| 2026-04-22 03:34 | 21.05288 | -102.80901 | 24173 ft | 370 kts | 179° |
| 2026-04-22 03:34 | 21.02690 | -102.80580 | 23550 ft | 373 kts | 176° |
| 2026-04-22 03:34 | 21.00126 | -102.80180 | 23117 ft | 369 kts | 175° |
| 2026-04-22 03:34 | 20.97603 | -102.79766 | 22625 ft | 367 kts | 174° |
| 2026-04-22 03:35 | 20.95089 | -102.79349 | 22188 ft | 364 kts | 174° |
| 2026-04-22 03:35 | 20.92594 | -102.78929 | 21721 ft | 363 kts | 174° |
| 2026-04-22 03:35 | 20.90101 | -102.78509 | 21290 ft | 360 kts | 174° |
| 2026-04-22 03:35 | 20.87599 | -102.78162 | 20837 ft | 356 kts | 180° |
| 2026-04-22 03:36 | 20.85168 | -102.78271 | 20390 ft | 350 kts | 192° |
| 2026-04-22 03:36 | 20.82833 | -102.78931 | 19946 ft | 344 kts | 204° |
| 2026-04-22 03:36 | 20.80715 | -102.80092 | 19506 ft | 339 kts | 214° |
| 2026-04-22 03:36 | 20.78737 | -102.81498 | 19023 ft | 338 kts | 216° |
| 2026-04-22 03:37 | 20.76803 | -102.82883 | 18595 ft | 336 kts | 215° |
| 2026-04-22 03:37 | 20.74815 | -102.84197 | 18168 ft | 334 kts | 212° |
| 2026-04-22 03:37 | 20.72781 | -102.85392 | 17785 ft | 331 kts | 209° |
| 2026-04-22 03:37 | 20.70722 | -102.86493 | 17320 ft | 331 kts | 207° |
| 2026-04-22 03:38 | 20.68658 | -102.87537 | 16848 ft | 331 kts | 206° |
| 2026-04-22 03:38 | 20.66536 | -102.88589 | 16093 ft | 341 kts | 205° |
| 2026-04-22 03:38 | 20.64368 | -102.89651 | 15513 ft | 343 kts | 205° |
| 2026-04-22 03:38 | 20.62189 | -102.90720 | 14997 ft | 342 kts | 205° |
| 2026-04-22 03:39 | 20.60046 | -102.91771 | 14295 ft | 337 kts | 205° |
| 2026-04-22 03:39 | 20.57977 | -102.92786 | 13620 ft | 320 kts | 204° |
| 2026-04-22 03:39 | 20.56004 | -102.93754 | 12981 ft | 305 kts | 204° |
| 2026-04-22 03:39 | 20.54115 | -102.94685 | 12364 ft | 293 kts | 205° |
| 2026-04-22 03:40 | 20.52278 | -102.95589 | 11571 ft | 290 kts | 206° |
| 2026-04-22 03:40 | 20.50470 | -102.96478 | 10815 ft | 285 kts | 206° |
| 2026-04-22 03:40 | 20.48682 | -102.97359 | 10081 ft | 279 kts | 207° |
| 2026-04-22 03:40 | 20.46974 | -102.98199 | 9709 ft | 261 kts | 207° |
| 2026-04-22 03:41 | 20.45350 | -102.98997 | 9628 ft | 250 kts | 207° |
| 2026-04-22 03:41 | 20.43793 | -102.99763 | 9427 ft | 246 kts | 207° |
| 2026-04-22 03:41 | 20.42306 | -103.00594 | 9385 ft | 242 kts | 216° |
| 2026-04-22 03:41 | 20.41124 | -103.01874 | 9357 ft | 244 kts | 245° |
| 2026-04-22 03:42 | 20.40808 | -103.03624 | 9371 ft | 243 kts | 278° |
| 2026-04-22 03:42 | 20.41311 | -103.05319 | 9371 ft | 240 kts | 295° |
| 2026-04-22 03:42 | 20.42014 | -103.06906 | 9349 ft | 228 kts | 296° |
| 2026-04-22 03:42 | 20.42664 | -103.08343 | 9312 ft | 204 kts | 295° |
| 2026-04-22 03:43 | 20.43238 | -103.09648 | 9031 ft | 189 kts | 294° |
| 2026-04-22 03:43 | 20.43761 | -103.10892 | 8768 ft | 175 kts | 293° |
| 2026-04-22 03:43 | 20.44223 | -103.12032 | 8553 ft | 162 kts | 293° |
| 2026-04-22 03:43 | 20.44657 | -103.13110 | 8373 ft | 157 kts | 293° |
| 2026-04-22 03:44 | 20.45092 | -103.14188 | 8196 ft | 160 kts | 293° |
| 2026-04-22 03:44 | 20.45546 | -103.15271 | 8009 ft | 154 kts | 295° |
| 2026-04-22 03:44 | 20.46010 | -103.16248 | 7972 ft | 153 kts | 297° |
| 2026-04-22 03:44 | 20.46625 | -103.17251 | 8517 ft | 172 kts | 307° |
| 2026-04-22 03:45 | 20.47289 | -103.18515 | 8522 ft | 226 kts | 288° |
| 2026-04-22 03:45 | 20.47764 | -103.20248 | 8309 ft | 255 kts | 287° |
| 2026-04-22 03:45 | 20.48365 | -103.22025 | 8233 ft | 256 kts | 292° |
| 2026-04-22 03:45 | 20.49117 | -103.23862 | 8697 ft | 279 kts | 294° |
| 2026-04-22 03:46 | 20.49900 | -103.25684 | 9996 ft | 274 kts | 295° |
| 2026-04-22 03:46 | 20.50667 | -103.27464 | 11254 ft | 263 kts | 295° |
| 2026-04-22 03:46 | 20.51426 | -103.29239 | 11407 ft | 266 kts | 295° |
| 2026-04-22 03:46 | 20.51990 | -103.31158 | 11558 ft | 281 kts | 273° |
| 2026-04-22 03:47 | 20.51543 | -103.33127 | 12708 ft | 278 kts | 242° |
| 2026-04-22 03:47 | 20.50330 | -103.34745 | 13118 ft | 283 kts | 221° |
| 2026-04-22 03:47 | 20.48673 | -103.35985 | 12767 ft | 289 kts | 207° |
| 2026-04-22 03:47 | 20.46754 | -103.36537 | 12371 ft | 288 kts | 180° |
| 2026-04-22 03:48 | 20.44797 | -103.36114 | 11982 ft | 287 kts | 155° |
| 2026-04-22 03:48 | 20.43117 | -103.34961 | 11586 ft | 285 kts | 138° |
| 2026-04-22 03:48 | 20.41860 | -103.33376 | 11358 ft | 277 kts | 121° |
| 2026-04-22 03:48 | 20.40961 | -103.31614 | 11314 ft | 263 kts | 116° |
| 2026-04-22 03:49 | 20.40180 | -103.29929 | 11305 ft | 248 kts | 116° |
| 2026-04-22 03:49 | 20.39420 | -103.28319 | 11319 ft | 235 kts | 116° |
| 2026-04-22 03:49 | 20.38673 | -103.26783 | 11324 ft | 233 kts | 117° |
| 2026-04-22 03:49 | 20.37915 | -103.25249 | 11328 ft | 235 kts | 117° |
| 2026-04-22 03:50 | 20.37151 | -103.23720 | 11331 ft | 235 kts | 117° |
| 2026-04-22 03:50 | 20.36376 | -103.22176 | 11334 ft | 235 kts | 117° |
| 2026-04-22 03:50 | 20.35613 | -103.20646 | 11330 ft | 234 kts | 117° |
| 2026-04-22 03:50 | 20.34844 | -103.19101 | 11341 ft | 234 kts | 117° |
| 2026-04-22 03:51 | 20.34081 | -103.17579 | 11344 ft | 234 kts | 117° |
| 2026-04-22 03:51 | 20.33308 | -103.16034 | 11345 ft | 234 kts | 117° |
| 2026-04-22 03:51 | 20.32697 | -103.14443 | 11342 ft | 233 kts | 101° |
| 2026-04-22 03:51 | 20.32729 | -103.12744 | 11354 ft | 230 kts | 70° |
| 2026-04-22 03:52 | 20.33543 | -103.11279 | 11398 ft | 241 kts | 46° |
| 2026-04-22 03:52 | 20.34945 | -103.10094 | 11381 ft | 275 kts | 29° |
| 2026-04-22 03:52 | 20.36731 | -103.09178 | 11064 ft | 287 kts | 22° |
| 2026-04-22 03:52 | 20.38625 | -103.08494 | 10440 ft | 291 kts | 8° |
| 2026-04-22 03:53 | 20.40644 | -103.08472 | 9798 ft | 290 kts | 348° |
| 2026-04-22 03:53 | 20.42493 | -103.09255 | 9219 ft | 284 kts | 322° |
| 2026-04-22 03:53 | 20.43719 | -103.10789 | 8809 ft | 264 kts | 297° |
| 2026-04-22 03:53 | 20.44421 | -103.12475 | 8482 ft | 233 kts | 292° |
| 2026-04-22 03:54 | 20.45015 | -103.13980 | 8206 ft | 209 kts | 293° |
| 2026-04-22 03:54 | 20.45561 | -103.15320 | 8094 ft | 180 kts | 293° |
| 2026-04-22 03:54 | 20.46036 | -103.16450 | 7871 ft | 164 kts | 293° |
| 2026-04-22 03:54 | 20.46491 | -103.17524 | 7594 ft | 152 kts | 293° |
| 2026-04-22 03:55 | 20.46908 | -103.18512 | 7376 ft | 145 kts | 293° |
| 2026-04-22 03:55 | 20.47316 | -103.19487 | 7206 ft | 145 kts | 292° |
| 2026-04-22 03:55 | 20.47751 | -103.20486 | 6938 ft | 149 kts | 292° |
| 2026-04-22 03:55 | 20.48174 | -103.21485 | 6525 ft | 149 kts | 293° |
| 2026-04-22 03:56 | 20.48604 | -103.22469 | 6166 ft | 144 kts | 293° |
| 2026-04-22 03:56 | 20.49003 | -103.23426 | 5843 ft | 143 kts | 292° |
| 2026-04-22 03:56 | 20.49390 | -103.24369 | 5673 ft | 137 kts | 288° |
| 2026-04-22 03:56 | 20.49751 | -103.25320 | 5490 ft | 140 kts | 292° |
| 2026-04-22 03:57 | 20.50160 | -103.26279 | 5410 ft | 140 kts | 292° |
| 2026-04-22 03:57 | 20.50568 | -103.27218 | 5305 ft | 141 kts | 293° |
| 2026-04-22 03:57 | 20.50960 | -103.28152 | 5229 ft | 137 kts | 288° |
| 2026-04-22 03:57 | 20.51330 | -103.29089 | 5083 ft | 135 kts | 292° |
| 2026-04-22 03:58 | 20.51690 | -103.29957 | 5030 ft | 110 kts | 295° |
| 2026-04-22 03:58 | 20.51891 | -103.30441 | 5032 ft | 25 kts | 299° |
| 2026-04-22 03:58 | 20.51973 | -103.30608 | 5033 ft | 35 kts | 298° |
| 2026-04-22 03:58 | 20.52159 | -103.30856 | 5034 ft | 43 kts | 325° |
| 2026-04-22 03:59 | 20.52338 | -103.30984 | 5033 ft | 17 kts | 339° |
| 2026-04-22 03:59 | 20.52454 | -103.30946 | 5032 ft | 21 kts | 30° |
| 2026-04-22 03:59 | 20.52493 | -103.30820 | 5031 ft | 20 kts | 109° |
| 2026-04-22 03:59 | 20.52430 | -103.30658 | 5030 ft | 24 kts | 111° |
| 2026-04-22 04:00 | 20.52365 | -103.30503 | 5030 ft | 17 kts | 114° |
| 2026-04-22 04:00 | 20.52373 | -103.30433 | 5029 ft | 10 kts | 26° |
| 2026-04-22 04:00 | 20.52438 | -103.30403 | 5029 ft | 10 kts | 51° |
| 2026-04-22 04:00 | 20.52481 | -103.30350 | 5029 ft | 5 kts | 21° |
| 2026-04-22 04:01 | 20.52507 | -103.30341 | 5029 ft | 0 kts | 18° |